»·PEaware :: N5328W KCMA-KSNA

N5328W :: KCMA-KSNA

FLIGHT INFORMATION

Flight Status: Arrived
Operator: Privately registered:
United States
More flights under this callsign
Pilot: Nick S. (31988)
Aircraft: Unknown
(A36)
More flights by this aircraft type
Origin: KCMA Camarillo
United States
Destination: KSNA John Wayne-Orange Co
United States
More flights between these airports :: More routes between these airports
Route: +SEPULVIDA -> COASTAL ROUTE -> FERMY -> DIRECT
File this flight plan on PilotEdge
Remarks:
Altitude:
(Current/Filed)
5,500ft
Speed:
(Current/Filed)
160kts
Departed: 20-Oct-20 01:44 PM
Arrived: 20-Oct-20 02:22 PM
Distance/Time
Traveled:
69nm/0:38
Distance/Time
To Go:
Arrived

Flight Plot

Page will automatically refresh every two minutes.

Flight plan parsing failed; only flown route is shown


Map Options




Map Legend


Flown Route
Filed Route
Departure Airport
Arrival Airport
Navaid (VOR, NDB)
Fix

Horizontal Profiles

Position Reports

Time Latitude Longitude Heading Altitude Ground
Speed
20-Oct-20 13:18 34.210692 -119.092575 192 71ft 0kts
20-Oct-20 13:19 34.210692 -119.092575 192 71ft 0kts
20-Oct-20 13:20 34.210691 -119.092575 192 71ft 0kts
20-Oct-20 13:21 34.210691 -119.092575 192 71ft 0kts
20-Oct-20 13:22 34.210692 -119.092575 192 71ft 0kts
20-Oct-20 13:23 34.210692 -119.092575 192 71ft 0kts
20-Oct-20 13:24 34.210692 -119.092575 192 71ft 0kts
20-Oct-20 13:25 34.210692 -119.092575 192 71ft 0kts
20-Oct-20 13:26 34.210692 -119.092575 192 71ft 0kts
20-Oct-20 13:27 34.210692 -119.092575 192 71ft 0kts
20-Oct-20 13:28 34.210692 -119.092575 192 71ft 0kts
20-Oct-20 13:29 34.210692 -119.092575 192 71ft 0kts
20-Oct-20 13:30 34.210692 -119.092575 192 71ft 0kts
20-Oct-20 13:31 34.210692 -119.092575 192 71ft 0kts
20-Oct-20 13:32 34.210692 -119.092575 192 71ft 0kts
20-Oct-20 13:33 34.210692 -119.092575 192 71ft 0kts
20-Oct-20 13:34 34.210692 -119.092575 192 71ft 0kts
20-Oct-20 13:35 34.210692 -119.092575 192 71ft 0kts
20-Oct-20 13:36 34.210692 -119.092575 192 71ft 0kts
20-Oct-20 13:37 34.210663 -119.091580 53 72ft 14kts
20-Oct-20 13:38 34.210922 -119.084969 91 80ft 6kts
20-Oct-20 13:39 34.212825 -119.084597 1 78ft 4kts
20-Oct-20 13:40 34.212829 -119.084597 1 78ft 0kts
20-Oct-20 13:41 34.212829 -119.084597 1 78ft 0kts
20-Oct-20 13:42 34.212829 -119.084597 1 78ft 0kts
20-Oct-20 13:43 34.213790 -119.098986 275 168ft 106kts
20-Oct-20 13:44 34.222112 -119.126811 26 1305ft 101kts
20-Oct-20 13:45 34.221346 -119.095600 125 2229ft 112kts
20-Oct-20 13:46 34.201387 -119.065350 106 3163ft 115kts
20-Oct-20 13:47 34.190837 -119.028595 130 3913ft 130kts
20-Oct-20 13:48 34.165836 -118.995177 131 4629ft 136kts
20-Oct-20 13:49 34.140016 -118.960663 131 5333ft 139kts
20-Oct-20 13:50 34.116996 -118.919676 91 5523ft 160kts
20-Oct-20 13:51 34.117761 -118.865075 87 5526ft 163kts
20-Oct-20 13:52 34.118545 -118.810077 87 5528ft 163kts
20-Oct-20 13:53 34.119335 -118.754793 87 5522ft 164kts
20-Oct-20 13:54 34.120130 -118.699661 87 5531ft 164kts
20-Oct-20 13:55 34.149310 -118.662796 34 5529ft 159kts
20-Oct-20 13:56 34.182263 -118.626723 45 5531ft 160kts
20-Oct-20 13:57 34.212483 -118.587314 56 5528ft 161kts
20-Oct-20 13:58 34.210441 -118.533406 118 5532ft 165kts
20-Oct-20 13:59 34.169348 -118.532048 202 5533ft 165kts
20-Oct-20 14:00 34.125219 -118.525457 158 5540ft 169kts
20-Oct-20 14:01 34.082116 -118.504546 158 5585ft 164kts
20-Oct-20 14:02 34.039787 -118.483914 158 5590ft 165kts
20-Oct-20 14:03 33.996773 -118.462961 158 5590ft 168kts
20-Oct-20 14:04 33.953051 -118.441693 158 5590ft 169kts
20-Oct-20 14:05 33.913662 -118.413226 127 5593ft 170kts
20-Oct-20 14:06 33.878670 -118.375031 139 5590ft 170kts
20-Oct-20 14:07 33.842929 -118.337743 139 5590ft 170kts
20-Oct-20 14:08 33.809368 -118.297998 139 5591ft 170kts
20-Oct-20 14:09 33.774133 -118.260107 137 5591ft 170kts
20-Oct-20 14:10 33.739471 -118.221165 136 5591ft 170kts
20-Oct-20 14:12 33.710447 -118.179358 91 5239ft 160kts
20-Oct-20 14:13 33.714126 -118.130423 94 4467ft 145kts
20-Oct-20 14:14 33.704534 -118.083184 111 3255ft 143kts
20-Oct-20 14:15 33.682840 -118.043630 123 2163ft 141kts
20-Oct-20 14:16 33.655330 -118.005891 132 2083ft 158kts
20-Oct-20 14:17 33.653128 -117.961189 55 2091ft 156kts
20-Oct-20 14:18 33.669041 -117.915197 73 1756ft 132kts
20-Oct-20 14:19 33.688800 -117.884149 35 1150ft 112kts
20-Oct-20 14:20 33.703602 -117.861588 152 841ft 105kts
20-Oct-20 14:21 33.680853 -117.865529 208 51ft 73kts
20-Oct-20 14:22 33.669670 -117.872116 159 59ft 10kts
20-Oct-20 14:23 33.669086 -117.871545 142 58ft 0kts
20-Oct-20 14:24 33.668366 -117.871692 216 58ft 9kts
20-Oct-20 14:25 33.665754 -117.873658 227 58ft 8kts
20-Oct-20 14:26 33.665738 -117.873680 227 58ft 0kts
20-Oct-20 14:26 33.665738 -117.873680 227 58ft 0kts

Navigation Log

Ident Type
Flight plan parsing failed, navigation log unavailable